This is the latest recevied weather packets stored in our database for station/object OK1VCF-8. If no packets are shown the sender has not sent any weather packets the latest 10 day(s).
| Time | Temp. | Humidity | Pressure | Rain* | Wind** | Luminosity | Snow |
|---|---|---|---|---|---|---|---|
| 1777882062 | 19.44° C | 44% | 1015.4 hPa | - | - | - | - |
| 1777881621 | 18.89° C | 46% | 1015.3 hPa | - | - | - | - |
| 1777881181 | 18.89° C | 46% | 1015.4 hPa | - | - | - | - |
| 1777879879 | 17.78° C | 48% | 1015.4 hPa | - | - | - | - |
| 1777879439 | 17.78° C | 48% | 1015.4 hPa | - | - | - | - |
| 1777878999 | 18.33° C | 48% | 1015.4 hPa | - | - | - | - |
| 1777878557 | 17.78° C | 49% | 1015.2 hPa | - | - | - | - |
| 1777877933 | 16.67° C | 52% | 1015.4 hPa | - | - | - | - |
| 1777877475 | 16.11° C | 54% | 1015.3 hPa | - | - | - | - |
| 1777877009 | 15.56° C | 56% | 1015.3 hPa | - | - | - | - |
| 1777876550 | 15.56° C | 58% | 1015.4 hPa | - | - | - | - |
| 1777876090 | 15.56° C | 60% | 1015.4 hPa | - | - | - | - |
| 1777875632 | 15° C | 60% | 1015.3 hPa | - | - | - | - |
| 1777875173 | 14.44° C | 62% | 1015.3 hPa | - | - | - | - |
| 1777874718 | 14.44° C | 63% | 1015.2 hPa | - | - | - | - |
| 1777874258 | 14.44° C | 62% | 1015 hPa | - | - | - | - |
| 1777873811 | 14.44° C | 60% | 1014.9 hPa | - | - | - | - |
| 1777873369 | 14.44° C | 62% | 1014.8 hPa | - | - | - | - |
| 1777872929 | 13.89° C | 63% | 1014.8 hPa | - | - | - | - |
| 1777872490 | 13.89° C | 63% | 1014.9 hPa | - | - | - | - |
| 1777871024 | 13.33° C | 68% | 1014.5 hPa | - | - | - | - |
| 1777870583 | 13.33° C | 67% | 1014.2 hPa | - | - | - | - |
| 1777870144 | 13.33° C | 66% | 1014.4 hPa | - | - | - | - |
| 1777869704 | 12.78° C | 66% | 1014 hPa | - | - | - | - |
| 1777869265 | 12.22° C | 68% | 1014 hPa | - | - | - | - |
* Rain since midnight (hover to see other rain measurements)
** Current wind speed in m/s (hover to see current wind gust speed)